Hurup, Denmark

1:48 PM CEST on August 30, 2014 (GMT +0200)
country side | Change Station
CLOSE
Current Station
Personal Weather Station
Location: Visby, THY
Elevation: 21 ft
Nearby Weather Stations

Elev 21 ft 56.78 °N, 8.48 °E | Updated 172 days ago

Thunderstorm
Thunderstorm
66 °F
Feels Like 66 °F
N
14
Wind Variable Wind from SSW
Gusts mph

Today
High -- | Low -- °F
--% Chance of Precip.
Yesterday
High -- | Low -- °F
Precip. -- in
6:24 AM 8:27 PM
Waxing Crescent, 21% visible
Pressure 29.80 in
Visibility 1.6 miles
Clouds Mostly Cloudy 700 ft
Dew Point 59 °F
Humidity 77%
Rainfall 0.00 in
Snow Depth Not available.
UV 4 out of 12
Pollen Not available.
Air Quality Not available.
Flu Activity Not available.
SPECI EKKA 301146Z 13007KT 100V170 2500 RA BKN007 16/16 Q1009

More Conditions Fewer Conditions

Pressure 29.80 in
Visibility 1.6 miles
Clouds Mostly Cloudy 700 ft
Dew Point 59 °F
Humidity 77%
Rainfall 0.00 in
Snow Depth Not available.
UV 4 out of 12
Pollen Not available.
Air Quality Not available.
Flu Activity Not available.
SPECI EKKA 301146Z 13007KT 100V170 2500 RA BKN007 16/16 Q1009

More Conditions Fewer Conditions

10-Day Weather Forecast

Almanac

Astronomy

Aug. 30, 2014 Rise Set
Actual Time 6:24 AM CEST 8:27 PM CEST
Civil Twilight 5:43 AM CEST 9:08 PM CEST
Nautical Twilight 4:51 AM CEST 10:00 PM CEST
Astronomical Twilight 3:48 AM CEST 11:01 PM CEST
Moon 11:55 AM CEST 9:49 PM CEST
Length of Visible Light 15h 25m
Length of Day
14h 03m
Tomorrow will be 4m 40s shorter.
Waxing Crescent, 21% of the Moon is Illuminated
Today
Waxing Crescent
Sep 2
First Quarter
Sep 8
Full
Sep 15
Last Quarter
Sep 24
New

Yesterday's Extremes

Country Highs Country Lows

Community

WunderPhotos

Upload Photos

1,748,492 photos uploaded!

WunderBlogs® & News

By Dr. Jeff Masters
Director of Meteorology, Weather Underground
By Kari Strenfel
Meteorologist, Weather Underground
By Christopher C. Burt
Weather Historian, Weather Underground
August 30, 2014
August 30, 2014
August 30, 2014

Nearby

Snow Depth

Not available.

Earthquake Activity

City Distance Mag. Time & Date
No recent earthquake activity has been reported nearby.
Minimum magnitude displayed is 2.5.

Coastal Water Temperatures

Place Temperature
No Stations Reporting

Nearby Weather Stations